sensor_id;sensor_type;location;lat;lon;timestamp;P1;durP1;ratioP1;P2;durP2;ratioP2
50337;SDS011;46221;51.178;5.900;2023-08-31T00:01:14;2.85;;;0.70;;
50337;SDS011;46221;51.178;5.900;2023-08-31T00:03:41;3.35;;;1.20;;
50337;SDS011;46221;51.178;5.900;2023-08-31T00:06:07;2.35;;;0.95;;
50337;SDS011;46221;51.178;5.900;2023-08-31T00:08:34;2.28;;;0.90;;
50337;SDS011;46221;51.178;5.900;2023-08-31T00:11:00;1.63;;;0.90;;
50337;SDS011;46221;51.178;5.900;2023-08-31T00:13:27;2.03;;;1.10;;
50337;SDS011;46221;51.178;5.900;2023-08-31T00:15:56;2.92;;;0.90;;
50337;SDS011;46221;51.178;5.900;2023-08-31T00:18:25;2.80;;;1.20;;
50337;SDS011;46221;51.178;5.900;2023-08-31T00:20:52;2.33;;;0.90;;
50337;SDS011;46221;51.178;5.900;2023-08-31T00:23:21;2.78;;;1.10;;
50337;SDS011;46221;51.178;5.900;2023-08-31T00:25:48;1.98;;;1.00;;
50337;SDS011;46221;51.178;5.900;2023-08-31T00:28:15;2.83;;;1.10;;
50337;SDS011;46221;51.178;5.900;2023-08-31T00:30:42;2.63;;;0.98;;
50337;SDS011;46221;51.178;5.900;2023-08-31T00:33:08;3.05;;;1.10;;
50337;SDS011;46221;51.178;5.900;2023-08-31T00:35:35;2.65;;;1.00;;
50337;SDS011;46221;51.178;5.900;2023-08-31T00:38:01;1.70;;;0.90;;
50337;SDS011;46221;51.178;5.900;2023-08-31T00:40:30;1.67;;;0.70;;
50337;SDS011;46221;51.178;5.900;2023-08-31T00:42:57;2.28;;;0.85;;
50337;SDS011;46221;51.178;5.900;2023-08-31T00:45:24;4.45;;;1.67;;
50337;SDS011;46221;51.178;5.900;2023-08-31T00:47:50;2.20;;;0.75;;
50337;SDS011;46221;51.178;5.900;2023-08-31T00:50:16;1.75;;;0.88;;
50337;SDS011;46221;51.178;5.900;2023-08-31T00:52:43;1.20;;;0.70;;
50337;SDS011;46221;51.178;5.900;2023-08-31T00:55:14;3.47;;;1.02;;
50337;SDS011;46221;51.178;5.900;2023-08-31T00:57:40;1.52;;;0.82;;
50337;SDS011;46221;51.178;5.900;2023-08-31T01:00:07;1.40;;;0.90;;
50337;SDS011;46221;51.178;5.900;2023-08-31T01:02:37;1.98;;;0.73;;
50337;SDS011;46221;51.178;5.900;2023-08-31T01:13:07;3.03;;;1.00;;
50337;SDS011;46221;51.178;5.900;2023-08-31T01:15:38;2.20;;;0.80;;
50337;SDS011;46221;51.178;5.900;2023-08-31T01:18:06;1.92;;;1.02;;
50337;SDS011;46221;51.178;5.900;2023-08-31T01:20:39;1.55;;;0.60;;
50337;SDS011;46221;51.178;5.900;2023-08-31T01:23:13;2.42;;;0.90;;
50337;SDS011;46221;51.178;5.900;2023-08-31T01:25:42;1.63;;;0.70;;
50337;SDS011;46221;51.178;5.900;2023-08-31T01:28:10;1.88;;;0.90;;
50337;SDS011;46221;51.178;5.900;2023-08-31T01:30:36;1.73;;;0.80;;
50337;SDS011;46221;51.178;5.900;2023-08-31T01:33:03;2.20;;;0.80;;
50337;SDS011;46221;51.178;5.900;2023-08-31T01:35:30;2.55;;;0.70;;
50337;SDS011;46221;51.178;5.900;2023-08-31T01:37:59;1.75;;;0.75;;
50337;SDS011;46221;51.178;5.900;2023-08-31T01:40:30;1.52;;;0.70;;
50337;SDS011;46221;51.178;5.900;2023-08-31T01:42:58;2.13;;;0.80;;
50337;SDS011;46221;51.178;5.900;2023-08-31T01:45:27;2.25;;;0.95;;
50337;SDS011;46221;51.178;5.900;2023-08-31T01:47:53;2.00;;;0.77;;
50337;SDS011;46221;51.178;5.900;2023-08-31T01:50:22;1.88;;;0.85;;
50337;SDS011;46221;51.178;5.900;2023-08-31T01:52:48;1.52;;;0.88;;
50337;SDS011;46221;51.178;5.900;2023-08-31T01:55:15;1.83;;;0.80;;
50337;SDS011;46221;51.178;5.900;2023-08-31T01:57:42;2.35;;;0.80;;
50337;SDS011;46221;51.178;5.900;2023-08-31T02:00:09;1.98;;;0.68;;
50337;SDS011;46221;51.178;5.900;2023-08-31T02:02:36;1.88;;;0.82;;
50337;SDS011;46221;51.178;5.900;2023-08-31T02:05:02;2.28;;;0.77;;
50337;SDS011;46221;51.178;5.900;2023-08-31T02:07:30;2.30;;;0.80;;
50337;SDS011;46221;51.178;5.900;2023-08-31T02:09:57;3.17;;;0.90;;
50337;SDS011;46221;51.178;5.900;2023-08-31T02:12:23;2.60;;;1.02;;
50337;SDS011;46221;51.178;5.900;2023-08-31T02:14:49;2.42;;;0.80;;
50337;SDS011;46221;51.178;5.900;2023-08-31T02:17:16;3.75;;;1.00;;
50337;SDS011;46221;51.178;5.900;2023-08-31T02:19:42;1.67;;;0.73;;
50337;SDS011;46221;51.178;5.900;2023-08-31T02:22:08;2.22;;;0.82;;
50337;SDS011;46221;51.178;5.900;2023-08-31T02:24:35;1.77;;;0.80;;
50337;SDS011;46221;51.178;5.900;2023-08-31T02:27:01;1.00;;;0.60;;
50337;SDS011;46221;51.178;5.900;2023-08-31T02:29:28;1.05;;;0.55;;
50337;SDS011;46221;51.178;5.900;2023-08-31T02:31:54;2.17;;;0.77;;
50337;SDS011;46221;51.178;5.900;2023-08-31T02:34:20;1.83;;;0.90;;
50337;SDS011;46221;51.178;5.900;2023-08-31T02:36:47;1.38;;;0.65;;
50337;SDS011;46221;51.178;5.900;2023-08-31T02:39:13;1.90;;;0.70;;
50337;SDS011;46221;51.178;5.900;2023-08-31T02:41:42;1.10;;;0.60;;
50337;SDS011;46221;51.178;5.900;2023-08-31T02:44:08;1.27;;;0.52;;
50337;SDS011;46221;51.178;5.900;2023-08-31T02:46:35;1.63;;;0.60;;
50337;SDS011;46221;51.178;5.900;2023-08-31T02:49:01;1.55;;;0.70;;
50337;SDS011;46221;51.178;5.900;2023-08-31T02:51:27;0.95;;;0.63;;
50337;SDS011;46221;51.178;5.900;2023-08-31T02:53:55;2.08;;;0.70;;
50337;SDS011;46221;51.178;5.900;2023-08-31T02:56:21;1.27;;;0.68;;
50337;SDS011;46221;51.178;5.900;2023-08-31T02:58:48;1.67;;;0.70;;
50337;SDS011;46221;51.178;5.900;2023-08-31T03:01:14;1.65;;;0.70;;
50337;SDS011;46221;51.178;5.900;2023-08-31T03:03:41;1.52;;;0.80;;
50337;SDS011;46221;51.178;5.900;2023-08-31T03:06:08;2.13;;;0.82;;
50337;SDS011;46221;51.178;5.900;2023-08-31T03:08:35;1.98;;;0.80;;
50337;SDS011;46221;51.178;5.900;2023-08-31T03:11:02;1.48;;;0.70;;
50337;SDS011;46221;51.178;5.900;2023-08-31T03:13:29;1.92;;;0.55;;
50337;SDS011;46221;51.178;5.900;2023-08-31T03:15:55;1.83;;;0.70;;
50337;SDS011;46221;51.178;5.900;2023-08-31T03:18:22;1.33;;;0.60;;
50337;SDS011;46221;51.178;5.900;2023-08-31T03:20:49;2.90;;;0.80;;
50337;SDS011;46221;51.178;5.900;2023-08-31T03:23:15;0.90;;;0.60;;
50337;SDS011;46221;51.178;5.900;2023-08-31T03:25:42;2.65;;;0.70;;
50337;SDS011;46221;51.178;5.900;2023-08-31T03:28:08;0.95;;;0.63;;
50337;SDS011;46221;51.178;5.900;2023-08-31T03:30:35;1.67;;;0.60;;
50337;SDS011;46221;51.178;5.900;2023-08-31T03:33:02;1.10;;;0.55;;
50337;SDS011;46221;51.178;5.900;2023-08-31T03:35:29;1.50;;;0.60;;
50337;SDS011;46221;51.178;5.900;2023-08-31T03:37:55;1.40;;;0.60;;
50337;SDS011;46221;51.178;5.900;2023-08-31T03:40:22;1.25;;;0.60;;
50337;SDS011;46221;51.178;5.900;2023-08-31T03:42:51;1.55;;;0.70;;
50337;SDS011;46221;51.178;5.900;2023-08-31T03:45:18;0.93;;;0.68;;
50337;SDS011;46221;51.178;5.900;2023-08-31T03:47:45;2.80;;;0.82;;
50337;SDS011;46221;51.178;5.900;2023-08-31T03:50:11;1.35;;;0.60;;
50337;SDS011;46221;51.178;5.900;2023-08-31T03:52:38;1.48;;;0.75;;
50337;SDS011;46221;51.178;5.900;2023-08-31T03:55:04;1.42;;;0.70;;
50337;SDS011;46221;51.178;5.900;2023-08-31T03:57:31;2.13;;;0.57;;
50337;SDS011;46221;51.178;5.900;2023-08-31T03:59:57;1.15;;;0.60;;
50337;SDS011;46221;51.178;5.900;2023-08-31T04:02:24;2.22;;;0.82;;
50337;SDS011;46221;51.178;5.900;2023-08-31T04:04:50;1.73;;;0.85;;
50337;SDS011;46221;51.178;5.900;2023-08-31T04:07:17;2.30;;;0.93;;
50337;SDS011;46221;51.178;5.900;2023-08-31T04:09:43;1.73;;;0.73;;
50337;SDS011;46221;51.178;5.900;2023-08-31T04:12:09;1.80;;;0.60;;
50337;SDS011;46221;51.178;5.900;2023-08-31T04:14:36;2.00;;;1.02;;
50337;SDS011;46221;51.178;5.900;2023-08-31T04:17:02;1.90;;;0.80;;
50337;SDS011;46221;51.178;5.900;2023-08-31T04:19:31;3.42;;;1.35;;
50337;SDS011;46221;51.178;5.900;2023-08-31T04:21:57;2.03;;;0.63;;
50337;SDS011;46221;51.178;5.900;2023-08-31T04:24:24;2.10;;;1.08;;
50337;SDS011;46221;51.178;5.900;2023-08-31T04:26:50;1.35;;;0.60;;
50337;SDS011;46221;51.178;5.900;2023-08-31T04:29:17;1.88;;;0.68;;
50337;SDS011;46221;51.178;5.900;2023-08-31T04:31:43;1.50;;;0.85;;
50337;SDS011;46221;51.178;5.900;2023-08-31T04:34:10;2.90;;;1.00;;
50337;SDS011;46221;51.178;5.900;2023-08-31T04:36:36;1.92;;;1.00;;
50337;SDS011;46221;51.178;5.900;2023-08-31T04:39:03;2.63;;;0.75;;
50337;SDS011;46221;51.178;5.900;2023-08-31T04:41:30;1.92;;;0.80;;
50337;SDS011;46221;51.178;5.900;2023-08-31T04:43:57;2.40;;;0.82;;
50337;SDS011;46221;51.178;5.900;2023-08-31T04:46:23;1.73;;;0.75;;
50337;SDS011;46221;51.178;5.900;2023-08-31T04:48:49;1.25;;;0.68;;
50337;SDS011;46221;51.178;5.900;2023-08-31T04:51:29;1.90;;;0.77;;
50337;SDS011;46221;51.178;5.900;2023-08-31T04:53:55;1.42;;;0.70;;
50337;SDS011;46221;51.178;5.900;2023-08-31T04:56:22;1.30;;;0.85;;
50337;SDS011;46221;51.178;5.900;2023-08-31T04:58:48;1.02;;;0.73;;
50337;SDS011;46221;51.178;5.900;2023-08-31T05:01:14;2.20;;;0.70;;
50337;SDS011;46221;51.178;5.900;2023-08-31T05:03:42;1.73;;;0.80;;
50337;SDS011;46221;51.178;5.900;2023-08-31T05:06:08;1.48;;;0.52;;
50337;SDS011;46221;51.178;5.900;2023-08-31T05:08:35;1.70;;;0.88;;
50337;SDS011;46221;51.178;5.900;2023-08-31T05:11:01;1.98;;;0.90;;
50337;SDS011;46221;51.178;5.900;2023-08-31T05:13:27;1.35;;;0.90;;
50337;SDS011;46221;51.178;5.900;2023-08-31T05:15:54;1.65;;;0.82;;
50337;SDS011;46221;51.178;5.900;2023-08-31T05:18:20;2.55;;;1.02;;
50337;SDS011;46221;51.178;5.900;2023-08-31T05:20:47;2.35;;;0.85;;
50337;SDS011;46221;51.178;5.900;2023-08-31T05:23:15;3.53;;;0.80;;
50337;SDS011;46221;51.178;5.900;2023-08-31T05:25:44;5.10;;;1.10;;
50337;SDS011;46221;51.178;5.900;2023-08-31T05:28:10;2.15;;;0.82;;
50337;SDS011;46221;51.178;5.900;2023-08-31T05:30:45;2.33;;;0.90;;
50337;SDS011;46221;51.178;5.900;2023-08-31T05:33:12;4.80;;;0.88;;
50337;SDS011;46221;51.178;5.900;2023-08-31T05:35:38;3.17;;;0.82;;
50337;SDS011;46221;51.178;5.900;2023-08-31T05:38:05;3.35;;;1.00;;
50337;SDS011;46221;51.178;5.900;2023-08-31T05:40:31;2.45;;;1.10;;
50337;SDS011;46221;51.178;5.900;2023-08-31T05:42:58;3.15;;;0.98;;
50337;SDS011;46221;51.178;5.900;2023-08-31T05:45:24;2.30;;;0.90;;
50337;SDS011;46221;51.178;5.900;2023-08-31T05:47:50;2.63;;;0.73;;
50337;SDS011;46221;51.178;5.900;2023-08-31T05:50:17;4.45;;;1.33;;
50337;SDS011;46221;51.178;5.900;2023-08-31T05:52:43;2.90;;;1.13;;
50337;SDS011;46221;51.178;5.900;2023-08-31T05:55:10;2.95;;;0.80;;
50337;SDS011;46221;51.178;5.900;2023-08-31T05:57:36;3.85;;;1.13;;
50337;SDS011;46221;51.178;5.900;2023-08-31T06:00:04;2.58;;;0.95;;
50337;SDS011;46221;51.178;5.900;2023-08-31T06:02:33;3.15;;;0.90;;
50337;SDS011;46221;51.178;5.900;2023-08-31T06:04:59;2.42;;;0.80;;
50337;SDS011;46221;51.178;5.900;2023-08-31T06:07:26;2.42;;;1.10;;
50337;SDS011;46221;51.178;5.900;2023-08-31T06:09:52;2.05;;;0.70;;
50337;SDS011;46221;51.178;5.900;2023-08-31T06:12:19;1.75;;;0.80;;
50337;SDS011;46221;51.178;5.900;2023-08-31T06:14:45;1.70;;;0.75;;
50337;SDS011;46221;51.178;5.900;2023-08-31T06:17:11;3.25;;;1.25;;
50337;SDS011;46221;51.178;5.900;2023-08-31T06:19:39;1.40;;;0.70;;
50337;SDS011;46221;51.178;5.900;2023-08-31T06:22:06;2.42;;;1.05;;
50337;SDS011;46221;51.178;5.900;2023-08-31T06:24:33;3.53;;;1.15;;
50337;SDS011;46221;51.178;5.900;2023-08-31T06:27:00;3.22;;;1.13;;
50337;SDS011;46221;51.178;5.900;2023-08-31T06:29:26;2.65;;;1.02;;
50337;SDS011;46221;51.178;5.900;2023-08-31T06:31:53;3.33;;;1.00;;
50337;SDS011;46221;51.178;5.900;2023-08-31T06:34:20;2.92;;;1.27;;
50337;SDS011;46221;51.178;5.900;2023-08-31T06:36:46;3.08;;;1.08;;
50337;SDS011;46221;51.178;5.900;2023-08-31T06:39:12;4.18;;;1.13;;
50337;SDS011;46221;51.178;5.900;2023-08-31T06:41:39;3.63;;;1.20;;
50337;SDS011;46221;51.178;5.900;2023-08-31T06:44:05;3.53;;;1.35;;
50337;SDS011;46221;51.178;5.900;2023-08-31T06:46:32;3.35;;;1.20;;
50337;SDS011;46221;51.178;5.900;2023-08-31T06:49:04;3.40;;;1.25;;
50337;SDS011;46221;51.178;5.900;2023-08-31T06:51:34;4.05;;;1.20;;
50337;SDS011;46221;51.178;5.900;2023-08-31T06:54:00;3.22;;;1.33;;
50337;SDS011;46221;51.178;5.900;2023-08-31T06:56:33;4.38;;;1.65;;
50337;SDS011;46221;51.178;5.900;2023-08-31T06:59:03;4.50;;;1.40;;
50337;SDS011;46221;51.178;5.900;2023-08-31T07:01:29;4.38;;;1.40;;
50337;SDS011;46221;51.178;5.900;2023-08-31T07:03:56;3.80;;;1.58;;
50337;SDS011;46221;51.178;5.900;2023-08-31T07:06:22;4.25;;;1.85;;
50337;SDS011;46221;51.178;5.900;2023-08-31T07:08:48;3.50;;;1.83;;
50337;SDS011;46221;51.178;5.900;2023-08-31T07:11:15;3.63;;;1.50;;
50337;SDS011;46221;51.178;5.900;2023-08-31T07:13:42;4.85;;;2.22;;
50337;SDS011;46221;51.178;5.900;2023-08-31T07:16:08;3.67;;;1.60;;
50337;SDS011;46221;51.178;5.900;2023-08-31T07:18:36;4.32;;;1.80;;
50337;SDS011;46221;51.178;5.900;2023-08-31T07:21:02;4.80;;;1.58;;
50337;SDS011;46221;51.178;5.900;2023-08-31T07:23:31;3.67;;;1.90;;
50337;SDS011;46221;51.178;5.900;2023-08-31T07:25:57;4.43;;;1.80;;
50337;SDS011;46221;51.178;5.900;2023-08-31T07:28:27;4.65;;;1.77;;
50337;SDS011;46221;51.178;5.900;2023-08-31T07:31:03;3.90;;;1.80;;
50337;SDS011;46221;51.178;5.900;2023-08-31T07:33:30;4.63;;;1.92;;
50337;SDS011;46221;51.178;5.900;2023-08-31T07:36:04;3.55;;;1.60;;
50337;SDS011;46221;51.178;5.900;2023-08-31T07:38:32;4.75;;;1.60;;
50337;SDS011;46221;51.178;5.900;2023-08-31T07:40:59;3.03;;;1.48;;
50337;SDS011;46221;51.178;5.900;2023-08-31T07:43:26;3.83;;;1.60;;
50337;SDS011;46221;51.178;5.900;2023-08-31T07:45:53;5.05;;;1.67;;
50337;SDS011;46221;51.178;5.900;2023-08-31T07:48:19;6.22;;;1.98;;
50337;SDS011;46221;51.178;5.900;2023-08-31T07:50:48;3.35;;;1.55;;
50337;SDS011;46221;51.178;5.900;2023-08-31T07:53:15;4.35;;;1.80;;
50337;SDS011;46221;51.178;5.900;2023-08-31T07:55:50;6.13;;;1.75;;
50337;SDS011;46221;51.178;5.900;2023-08-31T07:58:16;4.82;;;1.90;;
50337;SDS011;46221;51.178;5.900;2023-08-31T08:00:43;4.47;;;1.80;;
50337;SDS011;46221;51.178;5.900;2023-08-31T08:03:09;4.22;;;1.80;;
50337;SDS011;46221;51.178;5.900;2023-08-31T08:05:37;6.35;;;1.98;;
50337;SDS011;46221;51.178;5.900;2023-08-31T08:08:03;5.65;;;2.10;;
50337;SDS011;46221;51.178;5.900;2023-08-31T08:10:30;4.05;;;1.77;;
50337;SDS011;46221;51.178;5.900;2023-08-31T08:12:56;4.38;;;1.90;;
50337;SDS011;46221;51.178;5.900;2023-08-31T08:15:23;5.10;;;1.85;;
50337;SDS011;46221;51.178;5.900;2023-08-31T08:17:49;7.60;;;2.60;;
50337;SDS011;46221;51.178;5.900;2023-08-31T08:20:16;7.60;;;2.53;;
50337;SDS011;46221;51.178;5.900;2023-08-31T08:22:42;9.68;;;2.65;;
50337;SDS011;46221;51.178;5.900;2023-08-31T08:25:09;4.93;;;1.90;;
50337;SDS011;46221;51.178;5.900;2023-08-31T08:27:36;6.15;;;1.95;;
50337;SDS011;46221;51.178;5.900;2023-08-31T08:30:03;4.22;;;1.83;;
50337;SDS011;46221;51.178;5.900;2023-08-31T08:32:29;4.82;;;1.70;;
50337;SDS011;46221;51.178;5.900;2023-08-31T08:34:56;5.47;;;1.95;;
50337;SDS011;46221;51.178;5.900;2023-08-31T08:37:22;3.60;;;1.83;;
50337;SDS011;46221;51.178;5.900;2023-08-31T08:39:49;4.45;;;2.00;;
50337;SDS011;46221;51.178;5.900;2023-08-31T08:42:19;5.28;;;1.77;;
50337;SDS011;46221;51.178;5.900;2023-08-31T08:44:45;3.65;;;1.50;;
50337;SDS011;46221;51.178;5.900;2023-08-31T08:47:12;6.25;;;2.05;;
50337;SDS011;46221;51.178;5.900;2023-08-31T08:49:39;3.92;;;1.98;;
50337;SDS011;46221;51.178;5.900;2023-08-31T08:52:06;6.32;;;2.03;;
50337;SDS011;46221;51.178;5.900;2023-08-31T08:54:32;4.88;;;2.10;;
50337;SDS011;46221;51.178;5.900;2023-08-31T08:56:58;6.20;;;1.90;;
50337;SDS011;46221;51.178;5.900;2023-08-31T08:59:27;4.97;;;1.75;;
50337;SDS011;46221;51.178;5.900;2023-08-31T09:01:53;5.25;;;1.90;;
50337;SDS011;46221;51.178;5.900;2023-08-31T09:04:20;9.75;;;2.63;;
50337;SDS011;46221;51.178;5.900;2023-08-31T09:06:46;7.97;;;2.53;;
50337;SDS011;46221;51.178;5.900;2023-08-31T09:09:13;6.40;;;2.15;;
50337;SDS011;46221;51.178;5.900;2023-08-31T09:11:39;6.18;;;2.17;;
50337;SDS011;46221;51.178;5.900;2023-08-31T09:14:19;7.85;;;2.50;;
50337;SDS011;46221;51.178;5.900;2023-08-31T09:16:46;6.78;;;2.35;;
50337;SDS011;46221;51.178;5.900;2023-08-31T09:19:23;6.30;;;2.00;;
50337;SDS011;46221;51.178;5.900;2023-08-31T09:21:50;5.47;;;1.92;;
50337;SDS011;46221;51.178;5.900;2023-08-31T09:24:16;8.57;;;2.60;;
50337;SDS011;46221;51.178;5.900;2023-08-31T09:26:47;6.45;;;1.83;;
50337;SDS011;46221;51.178;5.900;2023-08-31T09:29:14;4.72;;;2.03;;
50337;SDS011;46221;51.178;5.900;2023-08-31T09:31:41;6.15;;;2.00;;
50337;SDS011;46221;51.178;5.900;2023-08-31T09:34:08;5.10;;;2.33;;
50337;SDS011;46221;51.178;5.900;2023-08-31T09:36:35;3.95;;;1.50;;
50337;SDS011;46221;51.178;5.900;2023-08-31T09:39:02;7.85;;;2.20;;
50337;SDS011;46221;51.178;5.900;2023-08-31T09:41:28;6.53;;;2.28;;
50337;SDS011;46221;51.178;5.900;2023-08-31T09:43:55;5.95;;;1.83;;
50337;SDS011;46221;51.178;5.900;2023-08-31T09:46:21;6.22;;;1.95;;
50337;SDS011;46221;51.178;5.900;2023-08-31T09:48:48;4.30;;;1.70;;
50337;SDS011;46221;51.178;5.900;2023-08-31T09:51:15;5.03;;;1.70;;
50337;SDS011;46221;51.178;5.900;2023-08-31T09:53:48;4.40;;;1.80;;
50337;SDS011;46221;51.178;5.900;2023-08-31T09:56:18;4.57;;;1.50;;
50337;SDS011;46221;51.178;5.900;2023-08-31T09:58:45;5.13;;;1.92;;
50337;SDS011;46221;51.178;5.900;2023-08-31T10:01:11;4.95;;;1.70;;
50337;SDS011;46221;51.178;5.900;2023-08-31T10:03:54;5.03;;;1.80;;
50337;SDS011;46221;51.178;5.900;2023-08-31T10:06:21;4.32;;;1.65;;
50337;SDS011;46221;51.178;5.900;2023-08-31T10:08:48;6.20;;;1.70;;
50337;SDS011;46221;51.178;5.900;2023-08-31T10:11:14;4.32;;;1.35;;
50337;SDS011;46221;51.178;5.900;2023-08-31T10:13:42;3.60;;;1.30;;
50337;SDS011;46221;51.178;5.900;2023-08-31T10:16:09;5.10;;;1.73;;
50337;SDS011;46221;51.178;5.900;2023-08-31T10:18:36;3.25;;;1.60;;
50337;SDS011;46221;51.178;5.900;2023-08-31T10:21:02;6.75;;;1.67;;
50337;SDS011;46221;51.178;5.900;2023-08-31T10:23:29;5.10;;;1.98;;
50337;SDS011;46221;51.178;5.900;2023-08-31T10:28:23;4.47;;;1.60;;
50337;SDS011;46221;51.178;5.900;2023-08-31T10:31:02;4.15;;;1.70;;
50337;SDS011;46221;51.178;5.900;2023-08-31T10:36:09;3.72;;;1.50;;
50337;SDS011;46221;51.178;5.900;2023-08-31T10:38:35;3.60;;;1.80;;
50337;SDS011;46221;51.178;5.900;2023-08-31T10:46:24;3.80;;;1.60;;
50337;SDS011;46221;51.178;5.900;2023-08-31T10:48:57;3.58;;;1.27;;
50337;SDS011;46221;51.178;5.900;2023-08-31T10:51:30;3.70;;;1.20;;
50337;SDS011;46221;51.178;5.900;2023-08-31T10:54:07;3.88;;;1.58;;
50337;SDS011;46221;51.178;5.900;2023-08-31T10:59:21;2.97;;;1.35;;
50337;SDS011;46221;51.178;5.900;2023-08-31T11:02:06;3.17;;;1.33;;
50337;SDS011;46221;51.178;5.900;2023-08-31T11:04:51;3.03;;;1.40;;
50337;SDS011;46221;51.178;5.900;2023-08-31T11:07:23;3.63;;;1.30;;
50337;SDS011;46221;51.178;5.900;2023-08-31T11:09:49;2.85;;;1.45;;
50337;SDS011;46221;51.178;5.900;2023-08-31T11:12:16;4.80;;;1.83;;
50337;SDS011;46221;51.178;5.900;2023-08-31T11:14:42;3.88;;;1.45;;
50337;SDS011;46221;51.178;5.900;2023-08-31T11:17:09;3.47;;;1.45;;
50337;SDS011;46221;51.178;5.900;2023-08-31T11:19:37;3.83;;;1.50;;
50337;SDS011;46221;51.178;5.900;2023-08-31T11:22:03;3.83;;;1.40;;
50337;SDS011;46221;51.178;5.900;2023-08-31T11:24:30;3.13;;;1.23;;
50337;SDS011;46221;51.178;5.900;2023-08-31T11:26:57;4.70;;;1.33;;
50337;SDS011;46221;51.178;5.900;2023-08-31T11:29:24;3.40;;;1.77;;
50337;SDS011;46221;51.178;5.900;2023-08-31T11:31:50;3.65;;;1.40;;
50337;SDS011;46221;51.178;5.900;2023-08-31T11:34:17;2.85;;;1.30;;
50337;SDS011;46221;51.178;5.900;2023-08-31T11:36:45;4.05;;;1.58;;
50337;SDS011;46221;51.178;5.900;2023-08-31T11:39:12;3.65;;;1.52;;
50337;SDS011;46221;51.178;5.900;2023-08-31T11:41:39;4.03;;;1.30;;
50337;SDS011;46221;51.178;5.900;2023-08-31T11:44:09;3.20;;;1.27;;
50337;SDS011;46221;51.178;5.900;2023-08-31T11:46:37;3.78;;;1.35;;
50337;SDS011;46221;51.178;5.900;2023-08-31T11:49:07;2.95;;;1.45;;
50337;SDS011;46221;51.178;5.900;2023-08-31T11:51:34;3.85;;;1.30;;
50337;SDS011;46221;51.178;5.900;2023-08-31T11:54:01;2.92;;;1.50;;
50337;SDS011;46221;51.178;5.900;2023-08-31T11:59:09;4.68;;;1.48;;
50337;SDS011;46221;51.178;5.900;2023-08-31T12:01:39;2.03;;;1.13;;
50337;SDS011;46221;51.178;5.900;2023-08-31T12:04:10;2.35;;;1.05;;
50337;SDS011;46221;51.178;5.900;2023-08-31T12:06:36;2.67;;;1.20;;
50337;SDS011;46221;51.178;5.900;2023-08-31T12:09:04;3.35;;;1.50;;
50337;SDS011;46221;51.178;5.900;2023-08-31T12:11:30;4.18;;;1.10;;
50337;SDS011;46221;51.178;5.900;2023-08-31T12:14:00;4.50;;;1.70;;
50337;SDS011;46221;51.178;5.900;2023-08-31T12:16:34;3.63;;;1.27;;
50337;SDS011;46221;51.178;5.900;2023-08-31T12:19:04;3.85;;;1.40;;
50337;SDS011;46221;51.178;5.900;2023-08-31T12:21:31;3.35;;;1.27;;
50337;SDS011;46221;51.178;5.900;2023-08-31T12:24:00;3.38;;;1.15;;
50337;SDS011;46221;51.178;5.900;2023-08-31T12:26:30;1.80;;;0.98;;
50337;SDS011;46221;51.178;5.900;2023-08-31T12:28:56;3.20;;;1.40;;
50337;SDS011;46221;51.178;5.900;2023-08-31T12:31:23;3.53;;;1.42;;
50337;SDS011;46221;51.178;5.900;2023-08-31T12:33:49;3.63;;;1.40;;
50337;SDS011;46221;51.178;5.900;2023-08-31T12:36:16;3.05;;;1.33;;
50337;SDS011;46221;51.178;5.900;2023-08-31T12:38:42;3.08;;;1.45;;
50337;SDS011;46221;51.178;5.900;2023-08-31T12:41:09;3.03;;;1.13;;
50337;SDS011;46221;51.178;5.900;2023-08-31T12:43:35;4.80;;;1.60;;
50337;SDS011;46221;51.178;5.900;2023-08-31T12:46:01;4.15;;;1.40;;
50337;SDS011;46221;51.178;5.900;2023-08-31T12:48:32;2.72;;;1.30;;
50337;SDS011;46221;51.178;5.900;2023-08-31T12:50:59;3.20;;;1.38;;
50337;SDS011;46221;51.178;5.900;2023-08-31T12:53:25;3.63;;;1.40;;
50337;SDS011;46221;51.178;5.900;2023-08-31T12:55:52;4.65;;;1.30;;
50337;SDS011;46221;51.178;5.900;2023-08-31T12:58:18;2.70;;;1.10;;
50337;SDS011;46221;51.178;5.900;2023-08-31T13:00:45;4.10;;;1.20;;
50337;SDS011;46221;51.178;5.900;2023-08-31T13:03:14;3.13;;;1.40;;
50337;SDS011;46221;51.178;5.900;2023-08-31T13:05:41;2.70;;;1.10;;
50337;SDS011;46221;51.178;5.900;2023-08-31T13:08:08;4.03;;;1.33;;
50337;SDS011;46221;51.178;5.900;2023-08-31T13:10:35;2.55;;;1.13;;
50337;SDS011;46221;51.178;5.900;2023-08-31T13:13:01;2.67;;;1.20;;
50337;SDS011;46221;51.178;5.900;2023-08-31T13:15:28;3.05;;;1.30;;
50337;SDS011;46221;51.178;5.900;2023-08-31T13:17:54;3.05;;;1.20;;
50337;SDS011;46221;51.178;5.900;2023-08-31T13:20:23;2.67;;;1.08;;
50337;SDS011;46221;51.178;5.900;2023-08-31T13:22:50;2.85;;;0.90;;
50337;SDS011;46221;51.178;5.900;2023-08-31T13:25:17;2.80;;;1.33;;
50337;SDS011;46221;51.178;5.900;2023-08-31T13:27:43;3.20;;;1.30;;
50337;SDS011;46221;51.178;5.900;2023-08-31T13:30:10;3.47;;;1.02;;
50337;SDS011;46221;51.178;5.900;2023-08-31T13:32:38;4.13;;;1.10;;
50337;SDS011;46221;51.178;5.900;2023-08-31T13:35:05;4.45;;;1.40;;
50337;SDS011;46221;51.178;5.900;2023-08-31T13:37:34;3.03;;;1.30;;
50337;SDS011;46221;51.178;5.900;2023-08-31T13:40:01;2.67;;;1.08;;
50337;SDS011;46221;51.178;5.900;2023-08-31T13:42:33;3.55;;;1.30;;
50337;SDS011;46221;51.178;5.900;2023-08-31T13:44:59;3.50;;;1.40;;
50337;SDS011;46221;51.178;5.900;2023-08-31T13:47:26;3.60;;;1.10;;
50337;SDS011;46221;51.178;5.900;2023-08-31T13:49:52;2.20;;;0.93;;
50337;SDS011;46221;51.178;5.900;2023-08-31T13:52:19;2.40;;;1.17;;
50337;SDS011;46221;51.178;5.900;2023-08-31T13:54:47;3.38;;;1.52;;
50337;SDS011;46221;51.178;5.900;2023-08-31T13:57:13;5.55;;;1.40;;
50337;SDS011;46221;51.178;5.900;2023-08-31T13:59:44;2.80;;;1.10;;
50337;SDS011;46221;51.178;5.900;2023-08-31T14:02:10;3.17;;;1.30;;
50337;SDS011;46221;51.178;5.900;2023-08-31T14:04:36;3.05;;;1.52;;
50337;SDS011;46221;51.178;5.900;2023-08-31T14:07:03;2.40;;;0.93;;
50337;SDS011;46221;51.178;5.900;2023-08-31T14:09:30;3.03;;;1.33;;
50337;SDS011;46221;51.178;5.900;2023-08-31T14:11:56;3.55;;;1.45;;
50337;SDS011;46221;51.178;5.900;2023-08-31T14:14:23;3.50;;;1.20;;
50337;SDS011;46221;51.178;5.900;2023-08-31T14:16:50;2.80;;;1.17;;
50337;SDS011;46221;51.178;5.900;2023-08-31T14:19:16;2.88;;;1.50;;
50337;SDS011;46221;51.178;5.900;2023-08-31T14:21:44;3.00;;;1.27;;
50337;SDS011;46221;51.178;5.900;2023-08-31T14:24:11;3.35;;;1.20;;
50337;SDS011;46221;51.178;5.900;2023-08-31T14:26:37;3.22;;;1.48;;
50337;SDS011;46221;51.178;5.900;2023-08-31T14:29:04;3.10;;;1.15;;
50337;SDS011;46221;51.178;5.900;2023-08-31T14:31:30;2.83;;;1.10;;
50337;SDS011;46221;51.178;5.900;2023-08-31T14:33:57;3.17;;;1.27;;
50337;SDS011;46221;51.178;5.900;2023-08-31T14:36:25;3.08;;;1.20;;
50337;SDS011;46221;51.178;5.900;2023-08-31T14:38:52;4.65;;;1.38;;
50337;SDS011;46221;51.178;5.900;2023-08-31T14:41:18;7.70;;;1.92;;
50337;SDS011;46221;51.178;5.900;2023-08-31T14:43:44;3.88;;;1.33;;
50337;SDS011;46221;51.178;5.900;2023-08-31T14:46:11;3.25;;;1.25;;
50337;SDS011;46221;51.178;5.900;2023-08-31T14:48:37;4.00;;;1.52;;
50337;SDS011;46221;51.178;5.900;2023-08-31T14:51:04;3.45;;;1.38;;
50337;SDS011;46221;51.178;5.900;2023-08-31T14:53:30;4.80;;;1.77;;
50337;SDS011;46221;51.178;5.900;2023-08-31T14:55:57;4.30;;;1.60;;
50337;SDS011;46221;51.178;5.900;2023-08-31T14:58:23;2.90;;;1.30;;
50337;SDS011;46221;51.178;5.900;2023-08-31T15:00:49;4.45;;;1.50;;
50337;SDS011;46221;51.178;5.900;2023-08-31T15:03:16;3.15;;;1.40;;
50337;SDS011;46221;51.178;5.900;2023-08-31T15:05:43;3.50;;;1.25;;
50337;SDS011;46221;51.178;5.900;2023-08-31T15:08:09;2.42;;;1.27;;
50337;SDS011;46221;51.178;5.900;2023-08-31T15:10:38;4.43;;;1.80;;
50337;SDS011;46221;51.178;5.900;2023-08-31T15:13:05;4.38;;;1.55;;